sensor_id;sensor_type;location;lat;lon;timestamp;P1;durP1;ratioP1;P2;durP2;ratioP2
70543;SDS011;58097;48.364;-1.224;2022-09-01T00:01:11;11.32;;;3.85;;
70543;SDS011;58097;48.364;-1.224;2022-09-01T00:03:43;9.32;;;3.40;;
70543;SDS011;58097;48.364;-1.224;2022-09-01T00:06:13;10.18;;;3.45;;
70543;SDS011;58097;48.364;-1.224;2022-09-01T00:08:46;10.80;;;3.97;;
70543;SDS011;58097;48.364;-1.224;2022-09-01T00:11:12;12.07;;;3.80;;
70543;SDS011;58097;48.364;-1.224;2022-09-01T00:13:38;7.75;;;3.40;;
70543;SDS011;58097;48.364;-1.224;2022-09-01T00:16:04;9.85;;;3.72;;
70543;SDS011;58097;48.364;-1.224;2022-09-01T00:18:29;6.75;;;3.38;;
70543;SDS011;58097;48.364;-1.224;2022-09-01T00:20:57;8.48;;;3.83;;
70543;SDS011;58097;48.364;-1.224;2022-09-01T00:23:24;10.48;;;3.35;;
70543;SDS011;58097;48.364;-1.224;2022-09-01T00:25:51;8.88;;;3.42;;
70543;SDS011;58097;48.364;-1.224;2022-09-01T00:28:17;14.68;;;4.68;;
70543;SDS011;58097;48.364;-1.224;2022-09-01T00:30:43;8.57;;;3.75;;
70543;SDS011;58097;48.364;-1.224;2022-09-01T00:33:08;6.38;;;3.33;;
70543;SDS011;58097;48.364;-1.224;2022-09-01T00:35:34;5.72;;;2.92;;
70543;SDS011;58097;48.364;-1.224;2022-09-01T00:37:59;13.57;;;3.58;;
70543;SDS011;58097;48.364;-1.224;2022-09-01T00:40:25;7.65;;;3.13;;
70543;SDS011;58097;48.364;-1.224;2022-09-01T00:42:51;11.57;;;3.17;;
70543;SDS011;58097;48.364;-1.224;2022-09-01T00:45:18;7.30;;;3.50;;
70543;SDS011;58097;48.364;-1.224;2022-09-01T00:47:45;5.95;;;3.03;;
70543;SDS011;58097;48.364;-1.224;2022-09-01T00:50:12;10.57;;;3.78;;
70543;SDS011;58097;48.364;-1.224;2022-09-01T00:52:48;10.98;;;3.67;;
70543;SDS011;58097;48.364;-1.224;2022-09-01T00:55:18;9.15;;;3.65;;
70543;SDS011;58097;48.364;-1.224;2022-09-01T00:57:49;6.07;;;3.47;;
70543;SDS011;58097;48.364;-1.224;2022-09-01T01:00:18;9.27;;;3.95;;
70543;SDS011;58097;48.364;-1.224;2022-09-01T01:02:46;8.45;;;4.32;;
70543;SDS011;58097;48.364;-1.224;2022-09-01T01:05:13;10.57;;;3.80;;
70543;SDS011;58097;48.364;-1.224;2022-09-01T01:07:40;9.82;;;4.00;;
70543;SDS011;58097;48.364;-1.224;2022-09-01T01:10:09;10.57;;;4.70;;
70543;SDS011;58097;48.364;-1.224;2022-09-01T01:12:37;8.85;;;3.40;;
70543;SDS011;58097;48.364;-1.224;2022-09-01T01:15:08;6.00;;;3.08;;
70543;SDS011;58097;48.364;-1.224;2022-09-01T01:17:35;10.23;;;4.03;;
70543;SDS011;58097;48.364;-1.224;2022-09-01T01:20:02;8.55;;;3.63;;
70543;SDS011;58097;48.364;-1.224;2022-09-01T01:22:59;9.05;;;3.50;;
70543;SDS011;58097;48.364;-1.224;2022-09-01T01:25:41;10.98;;;3.40;;
70543;SDS011;58097;48.364;-1.224;2022-09-01T01:28:17;7.82;;;3.55;;
70543;SDS011;58097;48.364;-1.224;2022-09-01T01:30:44;9.02;;;3.30;;
70543;SDS011;58097;48.364;-1.224;2022-09-01T01:33:18;12.82;;;3.78;;
70543;SDS011;58097;48.364;-1.224;2022-09-01T01:35:51;14.40;;;4.65;;
70543;SDS011;58097;48.364;-1.224;2022-09-01T01:38:19;9.65;;;3.42;;
70543;SDS011;58097;48.364;-1.224;2022-09-01T01:40:46;14.43;;;4.32;;
70543;SDS011;58097;48.364;-1.224;2022-09-01T01:43:12;9.73;;;4.28;;
70543;SDS011;58097;48.364;-1.224;2022-09-01T01:45:46;10.73;;;4.72;;
70543;SDS011;58097;48.364;-1.224;2022-09-01T01:48:16;10.45;;;3.90;;
70543;SDS011;58097;48.364;-1.224;2022-09-01T01:53:14;8.27;;;3.80;;
70543;SDS011;58097;48.364;-1.224;2022-09-01T01:55:42;8.65;;;3.75;;
70543;SDS011;58097;48.364;-1.224;2022-09-01T01:58:08;12.50;;;3.83;;
70543;SDS011;58097;48.364;-1.224;2022-09-01T02:00:36;9.15;;;3.40;;
70543;SDS011;58097;48.364;-1.224;2022-09-01T02:03:02;9.75;;;3.40;;
70543;SDS011;58097;48.364;-1.224;2022-09-01T02:05:31;12.40;;;4.22;;
70543;SDS011;58097;48.364;-1.224;2022-09-01T02:08:01;8.98;;;3.67;;
70543;SDS011;58097;48.364;-1.224;2022-09-01T02:10:31;14.50;;;4.20;;
70543;SDS011;58097;48.364;-1.224;2022-09-01T02:13:00;15.20;;;5.32;;
70543;SDS011;58097;48.364;-1.224;2022-09-01T02:18:06;10.60;;;4.20;;
70543;SDS011;58097;48.364;-1.224;2022-09-01T02:20:32;7.35;;;3.42;;
70543;SDS011;58097;48.364;-1.224;2022-09-01T02:22:58;17.38;;;5.07;;
70543;SDS011;58097;48.364;-1.224;2022-09-01T02:25:31;15.90;;;4.25;;
70543;SDS011;58097;48.364;-1.224;2022-09-01T02:27:58;13.70;;;4.20;;
70543;SDS011;58097;48.364;-1.224;2022-09-01T02:30:27;12.52;;;3.72;;
70543;SDS011;58097;48.364;-1.224;2022-09-01T02:32:53;9.15;;;4.05;;
70543;SDS011;58097;48.364;-1.224;2022-09-01T02:35:18;10.63;;;4.25;;
70543;SDS011;58097;48.364;-1.224;2022-09-01T02:37:44;12.10;;;4.03;;
70543;SDS011;58097;48.364;-1.224;2022-09-01T02:40:13;14.50;;;4.03;;
70543;SDS011;58097;48.364;-1.224;2022-09-01T02:42:40;9.10;;;3.65;;
70543;SDS011;58097;48.364;-1.224;2022-09-01T02:45:07;12.63;;;4.18;;
70543;SDS011;58097;48.364;-1.224;2022-09-01T02:47:36;11.75;;;4.00;;
70543;SDS011;58097;48.364;-1.224;2022-09-01T02:50:06;10.95;;;4.25;;
70543;SDS011;58097;48.364;-1.224;2022-09-01T02:52:38;8.48;;;3.38;;
70543;SDS011;58097;48.364;-1.224;2022-09-01T02:55:05;7.90;;;3.28;;
70543;SDS011;58097;48.364;-1.224;2022-09-01T02:57:32;10.00;;;3.60;;
70543;SDS011;58097;48.364;-1.224;2022-09-01T02:59:58;5.80;;;2.97;;
70543;SDS011;58097;48.364;-1.224;2022-09-01T03:02:24;6.20;;;2.80;;
70543;SDS011;58097;48.364;-1.224;2022-09-01T03:04:53;11.32;;;3.25;;
70543;SDS011;58097;48.364;-1.224;2022-09-01T03:07:20;6.38;;;3.22;;
70543;SDS011;58097;48.364;-1.224;2022-09-01T03:09:50;10.80;;;4.10;;
70543;SDS011;58097;48.364;-1.224;2022-09-01T03:12:17;14.73;;;3.63;;
70543;SDS011;58097;48.364;-1.224;2022-09-01T03:14:43;8.20;;;3.05;;
70543;SDS011;58097;48.364;-1.224;2022-09-01T03:17:09;14.38;;;3.83;;
70543;SDS011;58097;48.364;-1.224;2022-09-01T03:19:36;6.97;;;3.60;;
70543;SDS011;58097;48.364;-1.224;2022-09-01T03:22:08;10.02;;;3.00;;
70543;SDS011;58097;48.364;-1.224;2022-09-01T03:24:34;8.95;;;3.53;;
70543;SDS011;58097;48.364;-1.224;2022-09-01T03:27:00;10.23;;;3.53;;
70543;SDS011;58097;48.364;-1.224;2022-09-01T03:29:26;3.97;;;2.65;;
70543;SDS011;58097;48.364;-1.224;2022-09-01T03:31:51;10.27;;;3.22;;
70543;SDS011;58097;48.364;-1.224;2022-09-01T03:34:17;6.88;;;3.20;;
70543;SDS011;58097;48.364;-1.224;2022-09-01T03:36:45;5.22;;;2.63;;
70543;SDS011;58097;48.364;-1.224;2022-09-01T03:39:16;9.35;;;3.30;;
70543;SDS011;58097;48.364;-1.224;2022-09-01T03:41:43;8.68;;;3.47;;
70543;SDS011;58097;48.364;-1.224;2022-09-01T03:44:09;6.40;;;2.85;;
70543;SDS011;58097;48.364;-1.224;2022-09-01T03:46:36;8.93;;;3.33;;
70543;SDS011;58097;48.364;-1.224;2022-09-01T03:49:02;9.90;;;3.08;;
70543;SDS011;58097;48.364;-1.224;2022-09-01T03:51:31;7.53;;;3.53;;
70543;SDS011;58097;48.364;-1.224;2022-09-01T03:53:57;5.40;;;2.72;;
70543;SDS011;58097;48.364;-1.224;2022-09-01T03:56:24;6.85;;;2.80;;
70543;SDS011;58097;48.364;-1.224;2022-09-01T03:58:53;9.57;;;3.38;;
70543;SDS011;58097;48.364;-1.224;2022-09-01T04:01:20;6.63;;;3.05;;
70543;SDS011;58097;48.364;-1.224;2022-09-01T04:03:47;5.97;;;2.95;;
70543;SDS011;58097;48.364;-1.224;2022-09-01T04:06:13;8.18;;;3.42;;
70543;SDS011;58097;48.364;-1.224;2022-09-01T04:08:42;6.00;;;3.15;;
70543;SDS011;58097;48.364;-1.224;2022-09-01T04:11:10;8.70;;;2.67;;
70543;SDS011;58097;48.364;-1.224;2022-09-01T04:13:42;9.00;;;3.33;;
70543;SDS011;58097;48.364;-1.224;2022-09-01T04:19:16;5.15;;;2.67;;
70543;SDS011;58097;48.364;-1.224;2022-09-01T04:21:49;6.72;;;2.78;;
70543;SDS011;58097;48.364;-1.224;2022-09-01T04:24:18;5.60;;;3.08;;
70543;SDS011;58097;48.364;-1.224;2022-09-01T04:26:44;15.10;;;3.40;;
70543;SDS011;58097;48.364;-1.224;2022-09-01T04:29:12;9.77;;;3.22;;
70543;SDS011;58097;48.364;-1.224;2022-09-01T04:31:38;13.13;;;3.25;;
70543;SDS011;58097;48.364;-1.224;2022-09-01T04:34:06;8.77;;;3.38;;
70543;SDS011;58097;48.364;-1.224;2022-09-01T04:36:35;14.48;;;3.05;;
70543;SDS011;58097;48.364;-1.224;2022-09-01T04:39:01;8.95;;;3.50;;
70543;SDS011;58097;48.364;-1.224;2022-09-01T04:41:33;8.50;;;3.40;;
70543;SDS011;58097;48.364;-1.224;2022-09-01T04:44:01;8.82;;;3.88;;
70543;SDS011;58097;48.364;-1.224;2022-09-01T04:46:29;8.48;;;3.20;;
70543;SDS011;58097;48.364;-1.224;2022-09-01T04:48:59;8.18;;;3.38;;
70543;SDS011;58097;48.364;-1.224;2022-09-01T04:51:25;9.00;;;3.13;;
70543;SDS011;58097;48.364;-1.224;2022-09-01T04:53:54;7.25;;;3.25;;
70543;SDS011;58097;48.364;-1.224;2022-09-01T04:56:21;7.47;;;3.45;;
70543;SDS011;58097;48.364;-1.224;2022-09-01T04:58:49;7.28;;;3.10;;
70543;SDS011;58097;48.364;-1.224;2022-09-01T05:01:17;10.98;;;3.83;;
70543;SDS011;58097;48.364;-1.224;2022-09-01T05:03:45;7.07;;;4.07;;
70543;SDS011;58097;48.364;-1.224;2022-09-01T05:06:25;6.72;;;3.03;;
70543;SDS011;58097;48.364;-1.224;2022-09-01T05:08:52;8.10;;;3.65;;
70543;SDS011;58097;48.364;-1.224;2022-09-01T05:11:20;8.20;;;3.00;;
70543;SDS011;58097;48.364;-1.224;2022-09-01T05:13:48;9.80;;;3.33;;
70543;SDS011;58097;48.364;-1.224;2022-09-01T05:16:16;11.07;;;3.90;;
70543;SDS011;58097;48.364;-1.224;2022-09-01T05:18:44;10.77;;;3.60;;
70543;SDS011;58097;48.364;-1.224;2022-09-01T05:21:14;11.18;;;3.65;;
70543;SDS011;58097;48.364;-1.224;2022-09-01T05:23:42;6.65;;;3.60;;
70543;SDS011;58097;48.364;-1.224;2022-09-01T05:26:11;8.27;;;3.15;;
70543;SDS011;58097;48.364;-1.224;2022-09-01T05:28:43;5.60;;;3.20;;
70543;SDS011;58097;48.364;-1.224;2022-09-01T05:31:11;8.25;;;3.10;;
70543;SDS011;58097;48.364;-1.224;2022-09-01T05:33:37;5.43;;;2.90;;
70543;SDS011;58097;48.364;-1.224;2022-09-01T05:36:10;6.68;;;3.22;;
70543;SDS011;58097;48.364;-1.224;2022-09-01T05:38:37;9.55;;;3.35;;
70543;SDS011;58097;48.364;-1.224;2022-09-01T05:41:06;10.57;;;4.05;;
70543;SDS011;58097;48.364;-1.224;2022-09-01T05:43:34;9.68;;;3.45;;
70543;SDS011;58097;48.364;-1.224;2022-09-01T05:46:00;6.13;;;3.05;;
70543;SDS011;58097;48.364;-1.224;2022-09-01T05:48:30;5.57;;;3.53;;
70543;SDS011;58097;48.364;-1.224;2022-09-01T05:51:05;8.05;;;3.83;;
70543;SDS011;58097;48.364;-1.224;2022-09-01T05:53:32;6.85;;;3.75;;
70543;SDS011;58097;48.364;-1.224;2022-09-01T05:55:58;6.82;;;3.40;;
70543;SDS011;58097;48.364;-1.224;2022-09-01T05:58:31;7.60;;;3.25;;
70543;SDS011;58097;48.364;-1.224;2022-09-01T06:01:00;9.88;;;3.55;;
70543;SDS011;58097;48.364;-1.224;2022-09-01T06:03:26;8.60;;;3.42;;
70543;SDS011;58097;48.364;-1.224;2022-09-01T06:05:53;11.52;;;4.63;;
70543;SDS011;58097;48.364;-1.224;2022-09-01T06:08:20;7.57;;;4.57;;
70543;SDS011;58097;48.364;-1.224;2022-09-01T06:10:49;10.48;;;4.15;;
70543;SDS011;58097;48.364;-1.224;2022-09-01T06:13:17;10.23;;;4.20;;
70543;SDS011;58097;48.364;-1.224;2022-09-01T06:15:45;11.82;;;3.97;;
70543;SDS011;58097;48.364;-1.224;2022-09-01T06:18:12;6.07;;;3.75;;
70543;SDS011;58097;48.364;-1.224;2022-09-01T06:20:40;14.23;;;3.75;;
70543;SDS011;58097;48.364;-1.224;2022-09-01T06:23:08;7.22;;;3.88;;
70543;SDS011;58097;48.364;-1.224;2022-09-01T06:25:36;12.40;;;4.20;;
70543;SDS011;58097;48.364;-1.224;2022-09-01T06:28:04;6.55;;;3.55;;
70543;SDS011;58097;48.364;-1.224;2022-09-01T06:30:30;5.82;;;3.60;;
70543;SDS011;58097;48.364;-1.224;2022-09-01T06:32:57;6.80;;;3.70;;
70543;SDS011;58097;48.364;-1.224;2022-09-01T06:35:25;10.57;;;4.00;;
70543;SDS011;58097;48.364;-1.224;2022-09-01T06:37:56;6.97;;;4.28;;
70543;SDS011;58097;48.364;-1.224;2022-09-01T06:40:23;6.78;;;4.13;;
70543;SDS011;58097;48.364;-1.224;2022-09-01T06:42:49;10.35;;;4.60;;
70543;SDS011;58097;48.364;-1.224;2022-09-01T06:45:18;4.80;;;3.75;;
70543;SDS011;58097;48.364;-1.224;2022-09-01T06:47:47;9.48;;;5.35;;
70543;SDS011;58097;48.364;-1.224;2022-09-01T06:50:16;14.30;;;6.25;;
70543;SDS011;58097;48.364;-1.224;2022-09-01T06:52:45;9.38;;;5.63;;
70543;SDS011;58097;48.364;-1.224;2022-09-01T06:55:14;10.55;;;5.05;;
70543;SDS011;58097;48.364;-1.224;2022-09-01T06:57:41;7.28;;;4.35;;
70543;SDS011;58097;48.364;-1.224;2022-09-01T07:00:13;10.30;;;5.43;;
70543;SDS011;58097;48.364;-1.224;2022-09-01T07:02:59;9.38;;;4.93;;
70543;SDS011;58097;48.364;-1.224;2022-09-01T07:05:24;14.05;;;4.70;;
70543;SDS011;58097;48.364;-1.224;2022-09-01T07:07:51;8.73;;;5.03;;
70543;SDS011;58097;48.364;-1.224;2022-09-01T07:10:21;10.77;;;4.85;;
70543;SDS011;58097;48.364;-1.224;2022-09-01T07:12:48;8.32;;;4.90;;
70543;SDS011;58097;48.364;-1.224;2022-09-01T07:15:15;10.63;;;5.13;;
70543;SDS011;58097;48.364;-1.224;2022-09-01T07:17:45;10.15;;;5.45;;
70543;SDS011;58097;48.364;-1.224;2022-09-01T07:20:14;17.67;;;5.60;;
70543;SDS011;58097;48.364;-1.224;2022-09-01T07:22:40;8.35;;;5.28;;
70543;SDS011;58097;48.364;-1.224;2022-09-01T07:25:07;7.55;;;5.13;;
70543;SDS011;58097;48.364;-1.224;2022-09-01T07:27:36;12.73;;;6.53;;
70543;SDS011;58097;48.364;-1.224;2022-09-01T07:30:03;14.68;;;6.10;;
70543;SDS011;58097;48.364;-1.224;2022-09-01T07:32:33;11.80;;;5.90;;
70543;SDS011;58097;48.364;-1.224;2022-09-01T07:35:03;10.00;;;6.00;;
70543;SDS011;58097;48.364;-1.224;2022-09-01T07:37:30;11.95;;;6.28;;
70543;SDS011;58097;48.364;-1.224;2022-09-01T07:39:55;10.35;;;5.88;;
70543;SDS011;58097;48.364;-1.224;2022-09-01T07:42:22;10.20;;;5.65;;
70543;SDS011;58097;48.364;-1.224;2022-09-01T07:44:48;12.63;;;6.07;;
70543;SDS011;58097;48.364;-1.224;2022-09-01T07:47:14;13.57;;;7.30;;
70543;SDS011;58097;48.364;-1.224;2022-09-01T07:49:41;12.23;;;6.78;;
70543;SDS011;58097;48.364;-1.224;2022-09-01T07:52:07;11.50;;;6.28;;
70543;SDS011;58097;48.364;-1.224;2022-09-01T07:54:33;14.07;;;6.75;;
70543;SDS011;58097;48.364;-1.224;2022-09-01T07:57:01;13.70;;;6.55;;
70543;SDS011;58097;48.364;-1.224;2022-09-01T07:59:28;9.27;;;5.82;;
70543;SDS011;58097;48.364;-1.224;2022-09-01T08:01:55;15.43;;;6.40;;
70543;SDS011;58097;48.364;-1.224;2022-09-01T08:04:21;11.18;;;6.25;;
70543;SDS011;58097;48.364;-1.224;2022-09-01T08:06:47;9.60;;;6.45;;
70543;SDS011;58097;48.364;-1.224;2022-09-01T08:09:13;14.23;;;8.13;;
70543;SDS011;58097;48.364;-1.224;2022-09-01T08:11:39;18.90;;;10.10;;
70543;SDS011;58097;48.364;-1.224;2022-09-01T08:14:05;11.05;;;6.97;;
70543;SDS011;58097;48.364;-1.224;2022-09-01T08:16:31;11.32;;;6.47;;
70543;SDS011;58097;48.364;-1.224;2022-09-01T08:18:57;15.45;;;6.22;;
70543;SDS011;58097;48.364;-1.224;2022-09-01T08:21:23;9.02;;;5.50;;
70543;SDS011;58097;48.364;-1.224;2022-09-01T08:23:50;13.40;;;6.22;;
70543;SDS011;58097;48.364;-1.224;2022-09-01T08:26:18;9.55;;;5.60;;
70543;SDS011;58097;48.364;-1.224;2022-09-01T08:28:45;10.88;;;6.88;;
70543;SDS011;58097;48.364;-1.224;2022-09-01T08:31:12;9.48;;;6.22;;
70543;SDS011;58097;48.364;-1.224;2022-09-01T08:33:41;9.48;;;5.85;;
70543;SDS011;58097;48.364;-1.224;2022-09-01T08:36:09;11.40;;;6.72;;
70543;SDS011;58097;48.364;-1.224;2022-09-01T08:38:37;9.25;;;6.00;;
70543;SDS011;58097;48.364;-1.224;2022-09-01T08:41:04;11.35;;;6.45;;
70543;SDS011;58097;48.364;-1.224;2022-09-01T08:49:00;12.15;;;6.13;;
70543;SDS011;58097;48.364;-1.224;2022-09-01T08:51:37;13.88;;;7.18;;
70543;SDS011;58097;48.364;-1.224;2022-09-01T08:54:16;8.80;;;6.22;;
70543;SDS011;58097;48.364;-1.224;2022-09-01T08:56:46;9.55;;;6.28;;
70543;SDS011;58097;48.364;-1.224;2022-09-01T08:59:17;12.15;;;6.10;;
70543;SDS011;58097;48.364;-1.224;2022-09-01T09:12:41;10.13;;;6.85;;
70543;SDS011;58097;48.364;-1.224;2022-09-01T09:15:39;11.38;;;6.78;;
70543;SDS011;58097;48.364;-1.224;2022-09-01T09:21:27;10.23;;;6.43;;
70543;SDS011;58097;48.364;-1.224;2022-09-01T09:23:59;11.50;;;5.28;;
70543;SDS011;58097;48.364;-1.224;2022-09-01T09:26:47;16.05;;;7.22;;
70543;SDS011;58097;48.364;-1.224;2022-09-01T09:29:17;10.15;;;5.75;;
70543;SDS011;58097;48.364;-1.224;2022-09-01T09:31:45;10.50;;;6.47;;
70543;SDS011;58097;48.364;-1.224;2022-09-01T09:34:22;9.55;;;6.47;;
70543;SDS011;58097;48.364;-1.224;2022-09-01T09:36:59;10.10;;;6.28;;
70543;SDS011;58097;48.364;-1.224;2022-09-01T09:39:40;10.82;;;7.30;;
70543;SDS011;58097;48.364;-1.224;2022-09-01T09:42:06;10.77;;;6.38;;
70543;SDS011;58097;48.364;-1.224;2022-09-01T09:44:42;8.35;;;5.50;;
70543;SDS011;58097;48.364;-1.224;2022-09-01T09:53:09;10.27;;;6.07;;
70543;SDS011;58097;48.364;-1.224;2022-09-01T09:55:49;12.20;;;6.07;;
70543;SDS011;58097;48.364;-1.224;2022-09-01T09:58:20;12.85;;;6.35;;
70543;SDS011;58097;48.364;-1.224;2022-09-01T10:03:48;13.60;;;7.15;;
70543;SDS011;58097;48.364;-1.224;2022-09-01T10:12:00;13.95;;;7.10;;
70543;SDS011;58097;48.364;-1.224;2022-09-01T10:14:28;11.63;;;7.15;;
70543;SDS011;58097;48.364;-1.224;2022-09-01T10:17:16;14.25;;;7.00;;
70543;SDS011;58097;48.364;-1.224;2022-09-01T10:20:06;11.82;;;6.30;;
70543;SDS011;58097;48.364;-1.224;2022-09-01T10:22:41;18.50;;;8.13;;
70543;SDS011;58097;48.364;-1.224;2022-09-01T10:25:08;10.65;;;7.90;;
70543;SDS011;58097;48.364;-1.224;2022-09-01T10:27:41;14.18;;;7.88;;
70543;SDS011;58097;48.364;-1.224;2022-09-01T10:30:12;11.20;;;7.47;;
70543;SDS011;58097;48.364;-1.224;2022-09-01T10:32:43;15.43;;;7.25;;
70543;SDS011;58097;48.364;-1.224;2022-09-01T10:35:16;19.27;;;7.57;;
70543;SDS011;58097;48.364;-1.224;2022-09-01T10:37:48;10.45;;;7.55;;
70543;SDS011;58097;48.364;-1.224;2022-09-01T10:40:16;8.75;;;7.22;;
70543;SDS011;58097;48.364;-1.224;2022-09-01T10:42:59;15.85;;;7.32;;
70543;SDS011;58097;48.364;-1.224;2022-09-01T10:46:08;18.15;;;9.55;;
70543;SDS011;58097;48.364;-1.224;2022-09-01T10:48:55;14.27;;;7.13;;
70543;SDS011;58097;48.364;-1.224;2022-09-01T10:54:07;11.25;;;7.13;;
70543;SDS011;58097;48.364;-1.224;2022-09-01T11:02:08;15.32;;;7.30;;
70543;SDS011;58097;48.364;-1.224;2022-09-01T11:07:38;12.82;;;7.43;;
70543;SDS011;58097;48.364;-1.224;2022-09-01T11:13:05;8.73;;;6.57;;
70543;SDS011;58097;48.364;-1.224;2022-09-01T11:15:53;9.52;;;6.13;;
70543;SDS011;58097;48.364;-1.224;2022-09-01T11:27:00;9.45;;;5.57;;
70543;SDS011;58097;48.364;-1.224;2022-09-01T11:32:20;10.27;;;6.10;;
70543;SDS011;58097;48.364;-1.224;2022-09-01T11:35:16;12.52;;;7.35;;
70543;SDS011;58097;48.364;-1.224;2022-09-01T11:37:47;13.00;;;7.43;;
70543;SDS011;58097;48.364;-1.224;2022-09-01T11:40:19;8.93;;;7.00;;
70543;SDS011;58097;48.364;-1.224;2022-09-01T11:42:51;10.18;;;6.00;;
70543;SDS011;58097;48.364;-1.224;2022-09-01T11:45:20;8.18;;;5.57;;
70543;SDS011;58097;48.364;-1.224;2022-09-01T11:47:51;5.75;;;4.57;;
70543;SDS011;58097;48.364;-1.224;2022-09-01T11:50:22;9.50;;;6.63;;
70543;SDS011;58097;48.364;-1.224;2022-09-01T11:53:00;8.93;;;5.55;;
70543;SDS011;58097;48.364;-1.224;2022-09-01T11:55:37;6.00;;;5.28;;
70543;SDS011;58097;48.364;-1.224;2022-09-01T11:58:05;6.80;;;5.35;;
70543;SDS011;58097;48.364;-1.224;2022-09-01T12:00:37;11.15;;;5.90;;
70543;SDS011;58097;48.364;-1.224;2022-09-01T12:05:57;11.30;;;5.68;;
70543;SDS011;58097;48.364;-1.224;2022-09-01T12:08:26;6.18;;;4.65;;
70543;SDS011;58097;48.364;-1.224;2022-09-01T12:13:54;7.00;;;5.38;;
70543;SDS011;58097;48.364;-1.224;2022-09-01T12:16:29;10.80;;;5.72;;
70543;SDS011;58097;48.364;-1.224;2022-09-01T12:18:58;8.82;;;5.15;;
70543;SDS011;58097;48.364;-1.224;2022-09-01T12:21:27;12.70;;;5.97;;
70543;SDS011;58097;48.364;-1.224;2022-09-01T12:26:46;7.88;;;5.45;;
70543;SDS011;58097;48.364;-1.224;2022-09-01T12:29:14;9.25;;;5.82;;
70543;SDS011;58097;48.364;-1.224;2022-09-01T12:31:42;6.20;;;4.95;;
70543;SDS011;58097;48.364;-1.224;2022-09-01T12:37:22;6.18;;;5.30;;
70543;SDS011;58097;48.364;-1.224;2022-09-01T12:39:50;8.02;;;5.45;;
70543;SDS011;58097;48.364;-1.224;2022-09-01T12:44:55;8.43;;;5.55;;
70543;SDS011;58097;48.364;-1.224;2022-09-01T12:53:02;9.20;;;5.55;;
70543;SDS011;58097;48.364;-1.224;2022-09-01T12:55:37;8.48;;;5.65;;
70543;SDS011;58097;48.364;-1.224;2022-09-01T12:58:07;10.55;;;6.05;;
70543;SDS011;58097;48.364;-1.224;2022-09-01T13:00:35;7.68;;;5.90;;
70543;SDS011;58097;48.364;-1.224;2022-09-01T13:03:17;8.75;;;5.97;;
70543;SDS011;58097;48.364;-1.224;2022-09-01T13:05:44;10.65;;;6.40;;
70543;SDS011;58097;48.364;-1.224;2022-09-01T13:08:17;11.13;;;6.43;;
70543;SDS011;58097;48.364;-1.224;2022-09-01T13:10:45;9.10;;;5.43;;
70543;SDS011;58097;48.364;-1.224;2022-09-01T13:13:14;15.85;;;7.30;;
70543;SDS011;58097;48.364;-1.224;2022-09-01T13:15:44;10.73;;;7.82;;
70543;SDS011;58097;48.364;-1.224;2022-09-01T13:18:17;12.50;;;7.28;;
70543;SDS011;58097;48.364;-1.224;2022-09-01T13:20:45;14.02;;;8.65;;
70543;SDS011;58097;48.364;-1.224;2022-09-01T13:23:12;8.88;;;6.13;;
70543;SDS011;58097;48.364;-1.224;2022-09-01T13:25:38;13.32;;;7.22;;
70543;SDS011;58097;48.364;-1.224;2022-09-01T13:28:05;9.45;;;7.53;;
70543;SDS011;58097;48.364;-1.224;2022-09-01T13:30:32;7.82;;;6.20;;
70543;SDS011;58097;48.364;-1.224;2022-09-01T13:32:59;10.57;;;6.63;;
70543;SDS011;58097;48.364;-1.224;2022-09-01T13:35:25;16.05;;;7.60;;
70543;SDS011;58097;48.364;-1.224;2022-09-01T13:37:51;11.05;;;7.78;;
70543;SDS011;58097;48.364;-1.224;2022-09-01T13:40:17;11.52;;;7.78;;
70543;SDS011;58097;48.364;-1.224;2022-09-01T13:42:46;11.90;;;8.57;;
70543;SDS011;58097;48.364;-1.224;2022-09-01T13:45:17;8.32;;;6.30;;
70543;SDS011;58097;48.364;-1.224;2022-09-01T13:47:45;12.48;;;8.70;;
70543;SDS011;58097;48.364;-1.224;2022-09-01T13:50:13;10.15;;;7.20;;
70543;SDS011;58097;48.364;-1.224;2022-09-01T13:52:42;9.27;;;7.75;;
70543;SDS011;58097;48.364;-1.224;2022-09-01T13:55:10;11.43;;;7.38;;
70543;SDS011;58097;48.364;-1.224;2022-09-01T13:57:44;10.57;;;7.70;;
70543;SDS011;58097;48.364;-1.224;2022-09-01T14:00:11;13.05;;;7.80;;
70543;SDS011;58097;48.364;-1.224;2022-09-01T14:02:41;12.32;;;6.90;;
70543;SDS011;58097;48.364;-1.224;2022-09-01T14:05:19;10.50;;;7.60;;
70543;SDS011;58097;48.364;-1.224;2022-09-01T14:07:47;10.38;;;7.07;;
70543;SDS011;58097;48.364;-1.224;2022-09-01T14:10:13;11.70;;;7.10;;
70543;SDS011;58097;48.364;-1.224;2022-09-01T14:12:39;9.68;;;5.88;;
70543;SDS011;58097;48.364;-1.224;2022-09-01T14:15:06;7.05;;;6.30;;
70543;SDS011;58097;48.364;-1.224;2022-09-01T14:17:33;6.85;;;6.00;;
70543;SDS011;58097;48.364;-1.224;2022-09-01T14:20:00;8.00;;;6.10;;
70543;SDS011;58097;48.364;-1.224;2022-09-01T14:22:27;13.95;;;7.93;;
70543;SDS011;58097;48.364;-1.224;2022-09-01T14:24:52;8.82;;;7.30;;
70543;SDS011;58097;48.364;-1.224;2022-09-01T14:27:18;9.45;;;7.10;;
70543;SDS011;58097;48.364;-1.224;2022-09-01T14:29:47;9.85;;;6.93;;
70543;SDS011;58097;48.364;-1.224;2022-09-01T14:32:15;9.30;;;6.40;;
70543;SDS011;58097;48.364;-1.224;2022-09-01T14:34:41;7.20;;;6.32;;
70543;SDS011;58097;48.364;-1.224;2022-09-01T14:37:07;7.85;;;7.03;;
70543;SDS011;58097;48.364;-1.224;2022-09-01T14:39:33;8.73;;;6.32;;
70543;SDS011;58097;48.364;-1.224;2022-09-01T14:41:59;8.32;;;6.13;;
70543;SDS011;58097;48.364;-1.224;2022-09-01T14:44:24;7.72;;;6.97;;
70543;SDS011;58097;48.364;-1.224;2022-09-01T14:46:50;7.85;;;6.78;;
70543;SDS011;58097;48.364;-1.224;2022-09-01T14:49:17;8.25;;;5.57;;
70543;SDS011;58097;48.364;-1.224;2022-09-01T14:51:44;6.93;;;6.03;;
70543;SDS011;58097;48.364;-1.224;2022-09-01T14:54:10;7.90;;;5.55;;
70543;SDS011;58097;48.364;-1.224;2022-09-01T14:56:36;7.60;;;5.93;;
70543;SDS011;58097;48.364;-1.224;2022-09-01T14:59:02;7.53;;;5.28;;
70543;SDS011;58097;48.364;-1.224;2022-09-01T15:01:28;6.63;;;5.20;;
70543;SDS011;58097;48.364;-1.224;2022-09-01T15:03:57;7.82;;;5.07;;
70543;SDS011;58097;48.364;-1.224;2022-09-01T15:06:23;10.13;;;5.40;;
70543;SDS011;58097;48.364;-1.224;2022-09-01T15:08:49;6.30;;;5.68;;
70543;SDS011;58097;48.364;-1.224;2022-09-01T15:11:16;7.80;;;5.35;;
70543;SDS011;58097;48.364;-1.224;2022-09-01T15:13:42;5.28;;;4.75;;
70543;SDS011;58097;48.364;-1.224;2022-09-01T15:16:12;8.85;;;4.85;;
70543;SDS011;58097;48.364;-1.224;2022-09-01T15:18:40;6.10;;;4.70;;
70543;SDS011;58097;48.364;-1.224;2022-09-01T15:21:05;5.95;;;5.28;;
70543;SDS011;58097;48.364;-1.224;2022-09-01T15:23:31;7.78;;;5.18;;
70543;SDS011;58097;48.364;-1.224;2022-09-01T15:25:56;9.00;;;4.50;;
70543;SDS011;58097;48.364;-1.224;2022-09-01T15:28:22;9.60;;;5.43;;
70543;SDS011;58097;48.364;-1.224;2022-09-01T15:30:49;6.28;;;5.07;;
70543;SDS011;58097;48.364;-1.224;2022-09-01T15:33:18;5.28;;;4.85;;
70543;SDS011;58097;48.364;-1.224;2022-09-01T15:35:44;6.28;;;4.47;;
70543;SDS011;58097;48.364;-1.224;2022-09-01T15:38:11;6.20;;;4.60;;
70543;SDS011;58097;48.364;-1.224;2022-09-01T15:40:39;6.82;;;5.22;;
70543;SDS011;58097;48.364;-1.224;2022-09-01T15:43:06;7.55;;;4.72;;
70543;SDS011;58097;48.364;-1.224;2022-09-01T15:45:31;6.55;;;5.15;;
70543;SDS011;58097;48.364;-1.224;2022-09-01T15:47:57;8.32;;;4.50;;
70543;SDS011;58097;48.364;-1.224;2022-09-01T15:50:23;5.10;;;4.70;;
70543;SDS011;58097;48.364;-1.224;2022-09-01T15:52:54;6.72;;;4.90;;
70543;SDS011;58097;48.364;-1.224;2022-09-01T15:55:26;5.97;;;4.88;;
70543;SDS011;58097;48.364;-1.224;2022-09-01T15:58:01;7.18;;;4.80;;
70543;SDS011;58097;48.364;-1.224;2022-09-01T16:00:27;7.43;;;4.60;;
70543;SDS011;58097;48.364;-1.224;2022-09-01T16:02:53;7.72;;;5.72;;
70543;SDS011;58097;48.364;-1.224;2022-09-01T16:05:20;7.57;;;5.30;;
70543;SDS011;58097;48.364;-1.224;2022-09-01T16:07:46;5.97;;;4.63;;